Time;durP1;ratioP1;P1;durP2;ratioP2;P2;SDS_P1;SDS_P2;PMS_P1;PMS_P2;Temp;Humidity;BMP_temperature;BMP_pressure;BME280_temperature;BME280_humidity;BME280_pressure;Samples;Min_cycle;Max_cycle;Signal;HPM_P1;HPM_P2
2023/04/26 17:28:43;;;;;;;6.37;1.80;;;10.10;99.90;;;;;;5105350;27;20385;-72
2023/04/26 17:31:09;;;;;;;5.87;1.20;;;9.90;99.90;;;;;;5087389;28;20452;-73
2023/04/26 17:33:35;;;;;;;3.43;1.00;;;9.90;99.90;;;;;;5084202;28;20414;-74
2023/04/26 17:36:01;;;;;;;4.90;1.10;;;9.90;99.90;;;;;;5083146;28;20418;-74
2023/04/26 17:38:27;;;;;;;3.90;1.33;;;9.80;99.90;;;;;;5066554;28;20403;-73
2023/04/26 17:40:53;;;;;;;5.82;1.08;;;9.70;99.90;;;;;;5084244;28;20410;-73
2023/04/26 17:43:19;;;;;;;7.40;1.83;;;9.60;99.90;;;;;;5066369;28;20419;-73
2023/04/26 17:45:45;;;;;;;7.32;2.40;;;9.40;99.90;;;;;;5084215;28;20438;-73
2023/04/26 17:48:11;;;;;;;4.15;1.55;;;9.40;99.90;;;;;;5082834;28;20963;-73
2023/04/26 17:50:40;;;;;;;4.68;1.40;;;9.40;99.90;;;;;;5083491;28;20441;-74
2023/04/26 17:53:06;;;;;;;5.75;1.67;;;9.40;99.90;;;;;;5065888;28;20403;-73
2023/04/26 17:55:32;;;;;;;6.40;1.20;;;9.40;99.90;;;;;;5083764;28;20433;-74
2023/04/26 17:57:58;;;;;;;5.73;1.37;;;9.40;99.90;;;;;;5067280;28;20411;-73
2023/04/26 18:00:23;;;;;;;5.18;1.15;;;9.30;99.90;;;;;;5083845;28;20414;-74
2023/04/26 18:02:49;;;;;;;6.83;1.50;;;9.30;99.90;;;;;;5083097;28;20414;-74
2023/04/26 18:05:15;;;;;;;5.70;1.40;;;9.20;99.90;;;;;;5066865;28;20403;-74
2023/04/26 18:07:41;;;;;;;3.88;1.10;;;9.10;99.90;;;;;;5083609;28;20431;-74
2023/04/26 18:10:07;;;;;;;4.77;1.30;;;9.10;99.90;;;;;;5083491;28;20403;-75
2023/04/26 18:12:33;;;;;;;3.47;1.30;;;9.00;99.90;;;;;;5083535;28;20403;-74
2023/04/26 18:14:59;;;;;;;4.53;1.27;;;8.90;99.90;;;;;;5083759;28;20411;-76
2023/04/26 18:17:25;;;;;;;5.43;1.45;;;8.80;99.90;;;;;;5083367;28;20498;-74
2023/04/26 18:19:50;;;;;;;5.05;1.50;;;8.70;99.90;;;;;;5083071;28;20924;-73
2023/04/26 18:22:16;;;;;;;6.53;1.30;;;8.60;99.90;;;;;;5083243;28;20403;-71
2023/04/26 18:24:41;;;;;;;5.27;1.77;;;8.60;99.90;;;;;;5082991;28;20414;-73
2023/04/26 18:27:10;;;;;;;6.35;1.67;;;8.50;99.90;;;;;;5091049;28;20426;-72
2023/04/26 18:29:35;;;;;;;6.55;1.65;;;8.50;99.90;;;;;;5103185;28;20408;-73
2023/04/26 18:32:01;;;;;;;4.23;1.30;;;8.40;99.90;;;;;;5104244;28;20401;-73
2023/04/26 18:34:26;;;;;;;4.38;1.40;;;8.30;99.90;;;;;;5103203;28;20914;-73
2023/04/26 18:36:52;;;;;;;5.63;1.60;;;8.30;99.90;;;;;;5101628;28;20405;-74
2023/04/26 18:39:17;;;;;;;5.35;1.33;;;8.20;99.90;;;;;;5097133;28;20457;-75
2023/04/26 18:41:43;;;;;;;4.33;1.20;;;8.20;99.90;;;;;;5080907;28;20418;-74
2023/04/26 18:44:12;;;;;;;6.00;1.20;;;8.20;99.90;;;;;;5087337;28;20792;-74
2023/04/26 18:46:39;;;;;;;4.70;1.40;;;8.10;99.90;;;;;;5081957;28;20867;-74
2023/04/26 18:49:05;;;;;;;3.97;1.50;;;8.10;99.90;;;;;;5084663;28;21030;-74
2023/04/26 18:51:30;;;;;;;5.75;1.70;;;8.20;99.90;;;;;;5088245;28;20785;-75
2023/04/26 18:53:56;;;;;;;5.65;1.55;;;8.10;99.90;;;;;;5086578;28;20426;-74
2023/04/26 18:56:22;;;;;;;5.83;1.87;;;8.10;99.90;;;;;;5099424;28;20940;-74
2023/04/26 18:58:48;;;;;;;5.45;1.80;;;8.00;99.90;;;;;;5065611;28;20414;-74
2023/04/26 19:01:13;;;;;;;4.72;2.28;;;7.90;99.90;;;;;;5089238;28;20406;-74
2023/04/26 19:03:40;;;;;;;4.10;1.93;;;7.80;99.90;;;;;;5087386;28;20413;-74
2023/04/26 19:06:13;;;;;;;7.90;3.15;;;7.60;99.90;;;;;;5089422;28;20421;-74
2023/04/26 19:08:39;;;;;;;3.05;1.17;;;7.60;99.90;;;;;;5070295;28;20439;-74
2023/04/26 19:11:07;;;;;;;3.40;1.25;;;7.50;99.90;;;;;;5096337;28;20533;-74
2023/04/26 19:13:33;;;;;;;4.38;1.30;;;7.50;99.90;;;;;;5083921;28;20417;-75
2023/04/26 19:16:00;;;;;;;3.17;1.15;;;7.50;99.90;;;;;;5082572;28;20457;-75
2023/04/26 19:18:26;;;;;;;4.10;1.50;;;7.50;99.90;;;;;;5079675;28;20408;-75
2023/04/26 19:20:52;;;;;;;4.83;1.63;;;7.40;99.90;;;;;;5081767;28;20417;-75
2023/04/26 19:23:17;;;;;;;6.15;2.35;;;7.50;99.90;;;;;;5086531;28;20402;-75
2023/04/26 19:25:44;;;;;;;6.45;3.08;;;7.50;99.90;;;;;;5068814;28;21345;-76
2023/04/26 19:28:10;;;;;;;4.43;1.90;;;7.50;99.90;;;;;;5084764;28;20517;-74
2023/04/26 19:30:36;;;;;;;5.45;1.98;;;7.50;99.90;;;;;;5087364;28;21065;-75
2023/04/26 19:33:02;;;;;;;5.65;1.85;;;7.50;99.90;;;;;;5090206;28;20483;-75
2023/04/26 19:35:27;;;;;;;10.30;4.97;;;7.50;99.90;;;;;;5091634;28;20508;-74
2023/04/26 19:37:53;;;;;;;5.90;1.80;;;7.50;99.90;;;;;;5088272;28;20481;-75
2023/04/26 19:40:19;;;;;;;4.78;2.03;;;7.50;99.90;;;;;;5086612;28;20497;-75
2023/04/26 19:42:44;;;;;;;4.07;1.48;;;7.50;99.90;;;;;;5091509;28;21420;-75
2023/04/26 19:45:10;;;;;;;4.90;1.60;;;7.40;99.90;;;;;;5087410;28;20500;-75
2023/04/26 19:47:36;;;;;;;4.82;1.80;;;7.30;99.90;;;;;;5088668;28;20458;-75
2023/04/26 19:50:02;;;;;;;5.00;1.60;;;7.20;99.90;;;;;;5086516;28;20440;-75
2023/04/26 19:52:28;;;;;;;5.03;1.75;;;7.20;99.90;;;;;;5088035;28;20410;-76
2023/04/26 19:54:54;;;;;;;4.87;1.70;;;7.10;99.90;;;;;;5069301;28;20421;-76
2023/04/26 19:57:20;;;;;;;5.87;1.70;;;7.10;99.90;;;;;;5088000;28;20926;-76
2023/04/26 19:59:46;;;;;;;6.03;1.65;;;7.00;99.90;;;;;;5086958;28;21176;-76
2023/04/26 20:02:12;;;;;;;4.30;1.90;;;7.00;99.90;;;;;;5087906;28;20418;-76
2023/04/26 20:04:38;;;;;;;5.50;1.60;;;7.00;99.90;;;;;;5067814;28;20410;-76
2023/04/26 20:07:03;;;;;;;5.10;1.80;;;6.90;99.90;;;;;;5058340;28;20504;-76
2023/04/26 20:09:30;;;;;;;5.23;1.90;;;6.90;99.90;;;;;;5083267;28;20419;-76
2023/04/26 20:11:57;;;;;;;6.88;1.90;;;6.90;99.90;;;;;;5070789;28;20411;-76
2023/04/26 20:14:23;;;;;;;6.25;2.30;;;6.80;99.90;;;;;;5077757;28;20465;-73
2023/04/26 20:16:49;;;;;;;4.30;1.70;;;6.80;99.90;;;;;;5081216;28;20411;-75
2023/04/26 20:19:15;;;;;;;6.10;2.00;;;6.80;99.90;;;;;;5083254;28;20406;-75
2023/04/26 20:21:40;;;;;;;4.55;1.85;;;6.70;99.90;;;;;;5081808;28;20422;-75
2023/04/26 20:24:06;;;;;;;5.27;2.10;;;6.70;99.90;;;;;;5068816;28;20420;-75
2023/04/26 20:26:32;;;;;;;5.20;2.33;;;6.70;99.90;;;;;;5088334;28;20406;-75
2023/04/26 20:28:58;;;;;;;4.15;1.98;;;6.60;99.90;;;;;;5086364;28;20416;-75
2023/04/26 20:31:24;;;;;;;5.97;1.63;;;6.60;99.90;;;;;;5087385;28;20421;-75
2023/04/26 20:33:50;;;;;;;6.37;1.97;;;6.60;99.90;;;;;;5086798;28;20402;-75
2023/04/26 20:36:16;;;;;;;5.33;1.90;;;6.60;99.90;;;;;;5070201;28;20414;-75
2023/04/26 20:38:42;;;;;;;4.63;2.10;;;6.50;99.90;;;;;;5086660;28;20402;-75
2023/04/26 20:41:07;;;;;;;7.13;2.90;;;6.50;99.90;;;;;;5070372;28;20465;-75
2023/04/26 20:43:33;;;;;;;8.85;2.65;;;6.50;99.90;;;;;;5091031;28;20500;-75
2023/04/26 20:45:59;;;;;;;4.97;2.63;;;6.40;99.90;;;;;;5091636;28;20438;-75
2023/04/26 20:48:24;;;;;;;6.63;2.60;;;6.30;99.90;;;;;;5072319;28;20799;-75
2023/04/26 20:50:53;;;;;;;7.13;2.92;;;6.30;99.90;;;;;;5072214;28;20533;-75
2023/04/26 20:53:18;;;;;;;5.60;2.65;;;6.20;99.90;;;;;;5068377;28;20422;-75
2023/04/26 20:55:44;;;;;;;7.03;3.05;;;6.20;99.90;;;;;;5075134;28;20822;-76
2023/04/26 20:58:10;;;;;;;5.67;3.13;;;6.20;99.90;;;;;;5070542;28;20418;-75
2023/04/26 21:00:35;;;;;;;7.07;3.35;;;6.10;99.90;;;;;;5087431;28;20870;-75
2023/04/26 21:03:01;;;;;;;6.60;3.10;;;6.10;99.90;;;;;;5084969;28;20413;-76
2023/04/26 21:05:26;;;;;;;5.85;3.03;;;6.00;99.90;;;;;;5080912;28;20459;-76
2023/04/26 21:07:52;;;;;;;7.32;3.50;;;6.00;99.90;;;;;;5079244;28;20464;-76
2023/04/26 21:10:18;;;;;;;6.33;3.00;;;6.00;99.90;;;;;;5078073;28;20409;-75
2023/04/26 21:12:43;;;;;;;5.10;3.22;;;5.90;99.90;;;;;;5077345;28;20475;-75
2023/04/26 21:15:09;;;;;;;5.80;3.37;;;5.90;99.90;;;;;;5075906;28;20905;-75
2023/04/26 21:17:35;;;;;;;7.37;3.40;;;5.90;99.90;;;;;;5080159;28;20426;-74
2023/04/26 21:20:01;;;;;;;6.00;3.03;;;5.90;99.90;;;;;;5087154;28;20432;-73
2023/04/26 21:22:27;;;;;;;8.80;3.40;;;5.80;99.90;;;;;;5089193;28;20406;-73
2023/04/26 21:24:52;;;;;;;7.27;2.87;;;5.80;99.90;;;;;;5094207;28;20455;-75
2023/04/26 21:27:18;;;;;;;7.23;3.20;;;5.80;99.90;;;;;;5086810;28;21076;-73
2023/04/26 21:29:43;;;;;;;6.28;3.03;;;5.70;99.90;;;;;;5074554;28;20414;-74
2023/04/26 21:32:10;;;;;;;6.50;3.00;;;5.70;99.90;;;;;;5081810;28;20489;-75
2023/04/26 21:34:36;;;;;;;7.32;3.30;;;5.70;99.90;;;;;;5080466;28;20989;-76
2023/04/26 21:37:02;;;;;;;6.20;3.03;;;5.70;99.90;;;;;;5061566;28;20497;-75
2023/04/26 21:39:28;;;;;;;8.07;3.63;;;5.70;99.90;;;;;;5084053;28;20421;-75
2023/04/26 21:41:53;;;;;;;6.93;3.23;;;5.60;99.90;;;;;;5084531;28;20409;-75
2023/04/26 21:44:19;;;;;;;6.27;3.07;;;5.60;99.90;;;;;;5086286;28;21687;-75
2023/04/26 21:46:45;;;;;;;6.80;2.90;;;5.70;99.90;;;;;;5070289;28;20482;-75
2023/04/26 21:49:10;;;;;;;6.53;3.30;;;5.60;99.90;;;;;;5086805;28;20780;-75
2023/04/26 21:51:36;;;;;;;6.88;3.13;;;5.60;99.90;;;;;;5085004;28;20441;-75
2023/04/26 21:54:01;;;;;;;6.00;3.13;;;5.60;99.90;;;;;;5087433;28;20447;-75
2023/04/26 21:56:27;;;;;;;6.55;3.50;;;5.60;99.90;;;;;;5068924;28;20409;-75
2023/04/26 21:58:53;;;;;;;6.77;3.13;;;5.50;99.90;;;;;;5088047;28;20861;-75
2023/04/26 22:01:18;;;;;;;5.90;2.97;;;5.50;99.90;;;;;;5088332;28;20452;-76
2023/04/26 22:03:44;;;;;;;6.25;3.20;;;5.50;99.90;;;;;;5086908;28;20406;-76
2023/04/26 22:06:09;;;;;;;5.33;2.77;;;5.40;99.90;;;;;;5101325;28;20443;-75
2023/04/26 22:08:35;;;;;;;6.10;3.30;;;5.40;99.90;;;;;;5086965;28;20826;-75
2023/04/26 22:11:01;;;;;;;6.27;3.07;;;5.40;99.90;;;;;;5086695;28;20424;-76
2023/04/26 22:13:27;;;;;;;5.25;3.10;;;5.40;99.90;;;;;;5087351;28;20410;-76
2023/04/26 22:15:53;;;;;;;5.87;3.20;;;5.40;99.90;;;;;;5089895;28;20447;-76
2023/04/26 22:18:19;;;;;;;6.03;3.20;;;5.40;99.90;;;;;;5089891;28;20417;-76
2023/04/26 22:20:44;;;;;;;5.18;3.00;;;5.40;99.90;;;;;;5090406;28;20413;-76
2023/04/26 22:23:10;;;;;;;6.10;3.22;;;5.40;99.90;;;;;;5080621;28;20413;-76
2023/04/26 22:25:36;;;;;;;6.57;3.30;;;5.30;99.90;;;;;;5091179;28;20413;-76
2023/04/26 22:28:02;;;;;;;7.28;3.50;;;5.30;99.90;;;;;;5091382;28;21185;-76
2023/04/26 22:30:28;;;;;;;6.28;3.22;;;5.30;99.90;;;;;;5090355;28;20445;-76
2023/04/26 22:32:56;;;;;;;6.45;3.20;;;5.20;99.90;;;;;;5090163;28;20406;-75
2023/04/26 22:35:26;;;;;;;6.60;3.50;;;5.20;99.90;;;;;;5091253;28;20786;-76
2023/04/26 22:37:52;;;;;;;6.50;3.17;;;5.20;99.90;;;;;;5081569;28;20413;-76
2023/04/26 22:40:18;;;;;;;5.40;3.28;;;5.10;99.90;;;;;;5092495;28;20407;-76
2023/04/26 22:42:44;;;;;;;7.53;3.20;;;5.10;99.90;;;;;;5094078;28;20777;-76
2023/04/26 22:45:11;;;;;;;5.55;3.00;;;5.20;99.90;;;;;;5075792;28;20406;-76
2023/04/26 22:47:37;;;;;;;5.32;2.70;;;5.10;99.90;;;;;;5089981;28;21072;-76
2023/04/26 22:50:04;;;;;;;5.22;2.90;;;5.10;99.90;;;;;;5072404;28;20402;-76
2023/04/26 22:52:30;;;;;;;6.05;2.83;;;5.10;99.90;;;;;;5089833;28;20410;-76
2023/04/26 22:54:56;;;;;;;4.80;2.50;;;5.10;99.90;;;;;;5090052;28;20499;-76
2023/04/26 22:57:21;;;;;;;4.63;2.77;;;5.10;99.90;;;;;;5089740;28;20429;-76
2023/04/26 22:59:47;;;;;;;4.40;2.80;;;5.10;99.90;;;;;;5090284;28;20434;-76
2023/04/26 23:02:15;;;;;;;6.25;2.90;;;5.10;99.90;;;;;;5072666;28;20410;-76
2023/04/26 23:04:41;;;;;;;6.68;3.00;;;5.10;99.90;;;;;;5088998;28;20738;-76
2023/04/26 23:07:07;;;;;;;6.38;2.58;;;5.10;99.90;;;;;;5089614;28;20433;-76
2023/04/26 23:09:32;;;;;;;7.10;2.90;;;5.10;99.90;;;;;;5089877;28;20413;-76
2023/04/26 23:11:58;;;;;;;4.23;2.53;;;5.00;99.90;;;;;;5091109;28;20418;-76
2023/04/26 23:14:25;;;;;;;6.38;2.78;;;5.00;99.90;;;;;;5072422;28;20517;-76
2023/04/26 23:16:50;;;;;;;5.88;2.70;;;5.00;99.90;;;;;;5089752;28;20405;-76
2023/04/26 23:19:17;;;;;;;4.15;2.45;;;5.00;99.90;;;;;;5090397;28;20489;-76
2023/04/26 23:21:43;;;;;;;5.18;2.60;;;5.00;99.90;;;;;;5090096;28;20417;-76
2023/04/26 23:24:08;;;;;;;5.90;2.35;;;5.00;99.90;;;;;;5089876;28;20408;-76
2023/04/26 23:26:34;;;;;;;5.00;2.45;;;5.00;99.90;;;;;;5088588;28;20410;-76
2023/04/26 23:29:00;;;;;;;4.65;2.60;;;5.00;99.90;;;;;;5088130;28;20405;-76
2023/04/26 23:31:26;;;;;;;5.50;2.70;;;5.00;99.90;;;;;;5087998;28;20457;-76
2023/04/26 23:33:51;;;;;;;3.70;2.43;;;4.90;99.90;;;;;;5088701;28;20445;-76
2023/04/26 23:36:17;;;;;;;7.85;3.20;;;4.90;99.90;;;;;;5088996;28;20911;-76
2023/04/26 23:38:42;;;;;;;4.73;2.90;;;4.80;99.90;;;;;;5088625;28;20493;-76
2023/04/26 23:41:08;;;;;;;4.75;2.88;;;4.80;99.90;;;;;;5089701;28;20799;-76
2023/04/26 23:43:33;;;;;;;5.73;2.80;;;4.80;99.90;;;;;;5089560;28;20493;-76
2023/04/26 23:45:59;;;;;;;3.85;2.70;;;4.80;99.90;;;;;;5088237;28;20743;-76
2023/04/26 23:48:25;;;;;;;5.13;2.80;;;4.80;99.90;;;;;;5091385;28;20432;-76
2023/04/26 23:50:50;;;;;;;4.95;2.95;;;4.70;99.90;;;;;;5090978;28;20887;-76
2023/04/26 23:53:16;;;;;;;5.37;3.13;;;4.80;99.90;;;;;;5090078;28;20408;-76
2023/04/26 23:55:41;;;;;;;5.40;3.50;;;4.70;99.90;;;;;;5107058;28;20408;-76
2023/04/26 23:58:07;;;;;;;6.50;3.30;;;4.70;99.90;;;;;;5106766;28;20769;-76
